Time;durP1;ratioP1;P1;durP2;ratioP2;P2;SDS_P1;SDS_P2;PMS_P1;PMS_P2;Temp;Humidity;BMP_temperature;BMP_pressure;BME280_temperature;BME280_humidity;BME280_pressure;Samples;Min_cycle;Max_cycle;Signal;HPM_P1;HPM_P2
2021/07/08 00:01:28;;;;;;;7.3;3.4;;;;;;;19.72;100;98921.9;;;;
2021/07/08 00:11:28;;;;;;;7.1;3.3;;;;;;;19.56;100;98933.71;;;;
2021/07/08 00:21:28;;;;;;;7.7;4;;;;;;;19.44;100;98933.02;;;;
2021/07/08 00:31:27;;;;;;;10.3;4.2;;;;;;;19.19;100;98937.92;;;;
2021/07/08 00:41:27;;;;;;;6.5;3.8;;;;;;;19.11;100;98947.09;;;;
2021/07/08 00:51:26;;;;;;;6.5;3.8;;;;;;;19.09;100;98963.03;;;;
2021/07/08 01:01:26;;;;;;;7.2;3.6;;;;;;;18.9;100;98963.77;;;;
2021/07/08 01:11:25;;;;;;;10.1;4.9;;;;;;;18.85;100;98961.29;;;;
2021/07/08 01:21:25;;;;;;;7.7;4.6;;;;;;;18.74;100;98965.72;;;;
2021/07/08 01:31:24;;;;;;;6.2;4.2;;;;;;;18.61;100;98972.38;;;;
2021/07/08 01:41:24;;;;;;;10.6;5.2;;;;;;;18.44;100;98984.39;;;;
2021/07/08 01:51:23;;;;;;;6.5;4.3;;;;;;;18.32;100;98967.3;;;;
2021/07/08 02:01:23;;;;;;;6.4;3.2;;;;;;;18.17;100;98979.75;;;;
2021/07/08 02:21:22;;;;;;;9.1;4.7;;;;;;;17.96;100;98999.04;;;;
2021/07/08 02:31:21;;;;;;;5.9;4.1;;;;;;;17.9;100;98999.63;;;;
2021/07/08 02:41:20;;;;;;;6.3;4.4;;;;;;;17.83;100;99000.22;;;;
2021/07/08 02:51:20;;;;;;;6.8;4.9;;;;;;;17.74;100;99004.99;;;;
2021/07/08 03:01:19;;;;;;;7.4;3.7;;;;;;;17.6;100;99024.44;;;;
2021/07/08 03:11:20;;;;;;;6.9;4;;;;;;;17.68;100;99036.36;;;;
2021/07/08 03:21:18;;;;;;;10.6;4.9;;;;;;;17.81;100;99028.95;;;;
2021/07/08 03:31:18;;;;;;;5.8;3.7;;;;;;;18.01;100;99044.38;;;;
2021/07/08 03:41:17;;;;;;;10;4.3;;;;;;;18.42;100;99048.66;;;;
2021/07/08 03:51:17;;;;;;;10.1;5.6;;;;;;;18.41;100;99052.52;;;;
2021/07/08 04:01:16;;;;;;;7.8;4.6;;;;;;;18.35;100;99062.11;;;;
2021/07/08 04:11:16;;;;;;;7.9;5.2;;;;;;;18.36;100;99085.54;;;;
2021/07/08 04:21:15;;;;;;;8.9;4.7;;;;;;;18.29;100;99079.88;;;;
2021/07/08 04:31:16;;;;;;;10.9;5.2;;;;;;;18.33;100;99084.27;;;;
2021/07/08 04:41:14;;;;;;;13.1;6.5;;;;;;;18.61;100;99092.5;;;;
2021/07/08 04:51:14;;;;;;;8;5.1;;;;;;;18.89;100;99070.63;;;;
2021/07/08 05:01:14;;;;;;;10.7;5.1;;;;;;;19.19;100;99077.29;;;;
2021/07/08 05:11:13;;;;;;;9.2;6.1;;;;;;;19.44;100;99083.38;;;;
2021/07/08 05:21:13;;;;;;;8.9;5.9;;;;;;;19.52;100;99080.48;;;;
2021/07/08 05:31:12;;;;;;;9.5;5.5;;;;;;;19.71;100;99089.91;;;;
2021/07/08 05:41:12;;;;;;;10;6.1;;;;;;;19.86;100;99089.06;;;;
2021/07/08 05:51:12;;;;;;;11.9;6.1;;;;;;;19.99;100;99098.77;;;;
2021/07/08 06:01:12;;;;;;;10.3;7.9;;;;;;;20.34;100;99088.58;;;;
2021/07/08 06:11:12;;;;;;;15;7;;;;;;;20.89;100;99081.08;;;;
2021/07/08 06:21:14;;;;;;;11.2;6;;;;;;;21.81;100;99075.19;;;;
2021/07/08 06:31:14;;;;;;;10.1;5.9;;;;;;;22.34;100;99078.7;;;;
2021/07/08 06:41:12;;;;;;;9.6;7.2;;;;;;;23.14;100;99079.2;;;;
2021/07/08 06:51:12;;;;;;;8.3;5.3;;;;;;;23.59;100;99069.8;;;;
2021/07/08 07:01:13;;;;;;;9.9;5.1;;;;;;;23.98;100;99063.35;;;;
2021/07/08 07:11:13;;;;;;;11.2;6.1;;;;;;;24.64;100;99058.58;;;;
2021/07/08 07:21:13;;;;;;;11.9;5.2;;;;;;;25.15;100;99068.55;;;;
2021/07/08 07:31:14;;;;;;;14.3;5.8;;;;;;;25.29;100;99052;;;;
2021/07/08 07:41:14;;;;;;;8.3;5.7;;;;;;;25.04;100;99047.26;;;;
2021/07/08 07:51:15;;;;;;;18.6;6.2;;;;;;;24.89;100;99036.58;;;;
2021/07/08 08:01:16;;;;;;;7.8;5.2;;;;;;;25.72;100;99030.72;;;;
2021/07/08 08:11:16;;;;;;;12.4;6.1;;;;;;;25.44;100;99025.99;;;;
2021/07/08 08:21:17;;;;;;;13.6;5.7;;;;;;;25.89;100;99013.31;;;;
2021/07/08 08:31:17;;;;;;;10.3;6.2;;;;;;;26.14;100;99019.53;;;;
2021/07/08 08:41:18;;;;;;;11.5;5.7;;;;;;;26.24;100;99006.91;;;;
2021/07/08 08:51:19;;;;;;;11.3;5.4;;;;;;;26.29;100;99015.56;;;;
2021/07/08 09:01:20;;;;;;;16.9;7.1;;;;;;;26.48;100;99006.77;;;;
2021/07/08 09:11:20;;;;;;;15.2;7;;;;;;;26.42;100;98991;;;;
2021/07/08 09:21:21;;;;;;;8.8;6;;;;;;;26.64;100;98980.61;;;;
2021/07/08 09:31:22;;;;;;;11.7;7;;;;;;;27.12;100;98973.17;;;;
2021/07/08 09:41:24;;;;;;;12.5;7.3;;;;;;;27.33;100;98967.45;;;;
2021/07/08 09:51:24;;;;;;;8.9;5.3;;;;;;;27.44;100;98947.96;;;;
2021/07/08 10:01:25;;;;;;;8.3;6.1;;;;;;;27.95;100;98952.55;;;;
2021/07/08 10:11:26;;;;;;;9.1;5.7;;;;;;;28.14;100;98946.42;;;;
2021/07/08 10:21:29;;;;;;;18.7;6.1;;;;;;;28.21;100;98940.78;;;;
2021/07/08 10:31:28;;;;;;;13.6;7.9;;;;;;;28.4;100;98923.47;;;;
2021/07/08 10:41:29;;;;;;;13.6;7.7;;;;;;;28.79;100;98920.13;;;;
2021/07/08 10:51:30;;;;;;;10.9;7.1;;;;;;;28.87;100;98902.16;;;;
2021/07/08 11:01:31;;;;;;;8.8;6.8;;;;;;;29.1;100;98897.8;;;;
2021/07/08 11:11:32;;;;;;;13.2;7.5;;;;;;;29.19;100;98884.92;;;;
2021/07/08 11:21:33;;;;;;;8;6.2;;;;;;;29.63;100;98872.61;;;;
2021/07/08 11:31:35;;;;;;;11.1;7.4;;;;;;;30.03;99.90723;98870.58;;;;
2021/07/08 11:41:40;;;;;;;11.5;7.3;;;;;;;30.25;100;98851.43;;;;
2021/07/08 11:51:37;;;;;;;14.5;8.3;;;;;;;29.98;100;98846.09;;;;
2021/07/08 12:01:40;;;;;;;9.4;6.9;;;;;;;30.2;100;98838.05;;;;
2021/07/08 12:11:40;;;;;;;14.3;7;;;;;;;30.61;100;98832.7;;;;
2021/07/08 12:21:42;;;;;;;10.1;6.6;;;;;;;30.95;99.66211;98824.66;;;;
2021/07/08 12:31:42;;;;;;;11.3;7.7;;;;;;;30.43;99.78418;98822.02;;;;
2021/07/08 12:41:43;;;;;;;9.5;6.8;;;;;;;29.9;100;98817.67;;;;
2021/07/08 12:51:45;;;;;;;10.4;8.1;;;;;;;30.91;98.80957;98810.05;;;;
2021/07/08 13:01:46;;;;;;;11.5;7.1;;;;;;;31.29;98.24414;98792.72;;;;
2021/07/08 13:11:49;;;;;;;9;7.4;;;;;;;31.17;99.75488;98779.55;;;;
2021/07/08 13:21:49;;;;;;;11.8;6.7;;;;;;;31.72;98.44141;98773.56;;;;
2021/07/08 13:31:50;;;;;;;10.1;7.3;;;;;;;31.78;98.32324;98762.63;;;;
2021/07/08 13:41:52;;;;;;;11.2;7.3;;;;;;;32.12;98.9375;98770.34;;;;
2021/07/08 13:51:54;;;;;;;10.8;6.3;;;;;;;32.24;95.70215;98755.61;;;;
2021/07/08 14:01:55;;;;;;;10.3;6.3;;;;;;;32.78;95.33203;98750.57;;;;
2021/07/08 14:11:57;;;;;;;11.7;7.2;;;;;;;33.14;95.42773;98743.73;;;;
2021/07/08 14:21:59;;;;;;;8.9;7.5;;;;;;;32.77;95.10645;98732.25;;;;
2021/07/08 14:32:00;;;;;;;10.2;7.2;;;;;;;33.25;93.82129;98735.74;;;;
2021/07/08 14:42:02;;;;;;;10.4;6.8;;;;;;;33.81;94.72852;98710.39;;;;
2021/07/08 14:52:04;;;;;;;10.3;6.4;;;;;;;33.55;95.0166;98711.83;;;;
2021/07/08 15:02:06;;;;;;;8.7;6.2;;;;;;;33.47;91.71484;98697.34;;;;
2021/07/08 15:12:07;;;;;;;9.2;7.4;;;;;;;35.36;86.05176;98694.51;;;;
2021/07/08 15:22:09;;;;;;;8.5;5.7;;;;;;;36.54;82.58496;98682.67;;;;
2021/07/08 15:32:12;;;;;;;9.2;6.2;;;;;;;36.69;79.42188;98677.87;;;;
2021/07/08 15:42:16;;;;;;;9.6;6.9;;;;;;;36.85;76.38281;98670.25;;;;
2021/07/08 15:52:17;;;;;;;9.5;6.5;;;;;;;37.26;72.56738;98646.72;;;;
2021/07/08 16:02:19;;;;;;;8.8;6.4;;;;;;;37.36;71.87598;98638.95;;;;
2021/07/08 16:12:22;;;;;;;11.3;6.3;;;;;;;37.66;67.47559;98632.04;;;;
2021/07/08 16:22:25;;;;;;;10;6.7;;;;;;;37.67;67.3584;98633.56;;;;
2021/07/08 16:32:27;;;;;;;8.1;5.5;;;;;;;37.31;66.64551;98624.3;;;;
2021/07/08 16:42:30;;;;;;;8.8;6.2;;;;;;;35.98;71.19434;98632.22;;;;
2021/07/08 16:52:32;;;;;;;8.1;6.4;;;;;;;34.07;77.15234;98625.02;;;;
2021/07/08 17:02:35;;;;;;;9.9;6.9;;;;;;;33.55;80.10645;98617.58;;;;
2021/07/08 17:12:37;;;;;;;11.1;8.4;;;;;;;32.37;83.22656;98614.08;;;;
2021/07/08 17:22:40;;;;;;;8.3;7.5;;;;;;;31.54;86.81543;98613.7;;;;
2021/07/08 17:32:40;;;;;;;10.1;7.3;;;;;;;31.08;90.89844;98603.98;;;;
2021/07/08 17:42:42;;;;;;;22.4;8.9;;;;;;;31.49;88.50293;98589.15;;;;
2021/07/08 17:52:43;;;;;;;10.2;8.4;;;;;;;31.77;87.40234;98586.23;;;;
2021/07/08 18:02:45;;;;;;;17.1;15.3;;;;;;;31.14;90.38086;98569.56;;;;
2021/07/08 18:12:46;;;;;;;12.1;9.4;;;;;;;30.63;91.9834;98573.49;;;;
2021/07/08 18:22:48;;;;;;;12.4;10.8;;;;;;;29.78;95.87109;98590.44;;;;
2021/07/08 18:32:49;;;;;;;10.1;9;;;;;;;29.29;97.5;98586.12;;;;
2021/07/08 18:42:50;;;;;;;10.6;8.4;;;;;;;28.72;100;98595.67;;;;
2021/07/08 18:52:51;;;;;;;10.6;9.4;;;;;;;28.18;100;98616.53;;;;
2021/07/08 19:02:52;;;;;;;11.4;10.2;;;;;;;27.66;100;98605.15;;;;
2021/07/08 19:12:53;;;;;;;11.6;10;;;;;;;27.33;100;98620.66;;;;
2021/07/08 19:22:54;;;;;;;13.1;11;;;;;;;26.99;100;98626.28;;;;
2021/07/08 19:32:55;;;;;;;12.2;10.6;;;;;;;26.68;100;98628.23;;;;
2021/07/08 19:42:55;;;;;;;13.3;11.9;;;;;;;26.4;100;98639.61;;;;
2021/07/08 19:52:56;;;;;;;28.7;21.3;;;;;;;26.07;100;98646.61;;;;
2021/07/08 20:02:57;;;;;;;22.9;15.8;;;;;;;25.75;100;98648.88;;;;
2021/07/08 20:12:57;;;;;;;18.7;16.6;;;;;;;25.38;100;98646.73;;;;
2021/07/08 20:22:58;;;;;;;16.6;14;;;;;;;25.2;100;98640.56;;;;
2021/07/08 20:32:58;;;;;;;16.4;14.3;;;;;;;25.08;100;98650.08;;;;
2021/07/08 20:42:59;;;;;;;15.4;13.8;;;;;;;25.01;100;98639.08;;;;
2021/07/08 20:52:59;;;;;;;13.6;12.2;;;;;;;24.83;100;98650.19;;;;
2021/07/08 21:03:00;;;;;;;16;12.9;;;;;;;24.67;100;98641.58;;;;
2021/07/08 21:13:00;;;;;;;15.6;12.5;;;;;;;24.48;100;98637.3;;;;
2021/07/08 21:23:01;;;;;;;15.6;13.7;;;;;;;24.35;100;98613.33;;;;
2021/07/08 21:33:01;;;;;;;14.7;13.2;;;;;;;24.16;100;98597.27;;;;
2021/07/08 21:43:01;;;;;;;13.7;12.2;;;;;;;23.98;100;98589;;;;
2021/07/08 21:53:02;;;;;;;16.2;12;;;;;;;23.62;100;98599.25;;;;
2021/07/08 22:03:02;;;;;;;16.9;14.6;;;;;;;23.54;100;98587.45;;;;
2021/07/08 22:13:04;;;;;;;22.9;13.8;;;;;;;23.34;100;98594.5;;;;
2021/07/08 22:23:03;;;;;;;20.1;13.1;;;;;;;23.06;100;98586.99;;;;
2021/07/08 22:33:03;;;;;;;14.2;12.8;;;;;;;22.89;100;98606.98;;;;
2021/07/08 22:43:03;;;;;;;16;12.7;;;;;;;22.61;100;98612.34;;;;
2021/07/08 22:53:03;;;;;;;17.2;13.3;;;;;;;22.66;100;98622.18;;;;
2021/07/08 23:03:03;;;;;;;16.1;14.4;;;;;;;22.73;100;98619.49;;;;
2021/07/08 23:13:03;;;;;;;15.1;12.8;;;;;;;22.71;100;98605.34;;;;
2021/07/08 23:23:04;;;;;;;17.3;11.3;;;;;;;22.82;100;98601.46;;;;
2021/07/08 23:33:04;;;;;;;14.2;10.9;;;;;;;22.91;100;98593.63;;;;
